sensor_id;sensor_type;location;lat;lon;timestamp;P1;durP1;ratioP1;P2;durP2;ratioP2
3197;SDS011;1611;49.394;11.136;2024-03-08T00:01:15;40.55;;;21.70;;
3197;SDS011;1611;49.394;11.136;2024-03-08T00:03:44;37.60;;;20.10;;
3197;SDS011;1611;49.394;11.136;2024-03-08T00:06:12;39.50;;;20.42;;
3197;SDS011;1611;49.394;11.136;2024-03-08T00:08:38;37.90;;;20.95;;
3197;SDS011;1611;49.394;11.136;2024-03-08T00:11:05;35.67;;;21.17;;
3197;SDS011;1611;49.394;11.136;2024-03-08T00:13:33;37.28;;;19.83;;
3197;SDS011;1611;49.394;11.136;2024-03-08T00:16:00;37.70;;;19.27;;
3197;SDS011;1611;49.394;11.136;2024-03-08T00:18:27;44.47;;;21.13;;
3197;SDS011;1611;49.394;11.136;2024-03-08T00:20:54;33.38;;;18.58;;
3197;SDS011;1611;49.394;11.136;2024-03-08T00:23:22;45.55;;;18.55;;
3197;SDS011;1611;49.394;11.136;2024-03-08T00:25:49;39.78;;;20.17;;
3197;SDS011;1611;49.394;11.136;2024-03-08T00:28:16;32.38;;;19.10;;
3197;SDS011;1611;49.394;11.136;2024-03-08T00:30:43;40.25;;;19.98;;
3197;SDS011;1611;49.394;11.136;2024-03-08T00:33:11;34.78;;;19.27;;
3197;SDS011;1611;49.394;11.136;2024-03-08T00:35:38;33.10;;;17.77;;
3197;SDS011;1611;49.394;11.136;2024-03-08T00:38:05;33.83;;;18.05;;
3197;SDS011;1611;49.394;11.136;2024-03-08T00:40:33;36.70;;;18.70;;
3197;SDS011;1611;49.394;11.136;2024-03-08T00:43:00;34.05;;;17.17;;
3197;SDS011;1611;49.394;11.136;2024-03-08T00:45:28;33.97;;;17.00;;
3197;SDS011;1611;49.394;11.136;2024-03-08T00:47:55;35.33;;;16.40;;
3197;SDS011;1611;49.394;11.136;2024-03-08T00:50:22;29.08;;;16.05;;
3197;SDS011;1611;49.394;11.136;2024-03-08T00:52:49;30.45;;;16.17;;
3197;SDS011;1611;49.394;11.136;2024-03-08T00:55:16;39.08;;;18.33;;
3197;SDS011;1611;49.394;11.136;2024-03-08T00:57:44;41.97;;;17.58;;
3197;SDS011;1611;49.394;11.136;2024-03-08T01:00:11;35.17;;;18.00;;
3197;SDS011;1611;49.394;11.136;2024-03-08T01:02:39;30.90;;;17.50;;
3197;SDS011;1611;49.394;11.136;2024-03-08T01:05:06;39.03;;;20.08;;
3197;SDS011;1611;49.394;11.136;2024-03-08T01:07:33;44.20;;;20.75;;
3197;SDS011;1611;49.394;11.136;2024-03-08T01:10:00;41.78;;;20.20;;
3197;SDS011;1611;49.394;11.136;2024-03-08T01:12:27;37.70;;;19.85;;
3197;SDS011;1611;49.394;11.136;2024-03-08T01:14:55;41.60;;;21.52;;
3197;SDS011;1611;49.394;11.136;2024-03-08T01:17:23;36.60;;;19.90;;
3197;SDS011;1611;49.394;11.136;2024-03-08T01:19:50;36.50;;;18.77;;
3197;SDS011;1611;49.394;11.136;2024-03-08T01:22:16;34.00;;;17.33;;
3197;SDS011;1611;49.394;11.136;2024-03-08T01:24:43;40.42;;;20.27;;
3197;SDS011;1611;49.394;11.136;2024-03-08T01:27:10;37.70;;;18.95;;
3197;SDS011;1611;49.394;11.136;2024-03-08T01:29:37;36.50;;;19.95;;
3197;SDS011;1611;49.394;11.136;2024-03-08T01:32:05;35.65;;;21.02;;
3197;SDS011;1611;49.394;11.136;2024-03-08T01:34:32;40.35;;;20.75;;
3197;SDS011;1611;49.394;11.136;2024-03-08T01:36:59;43.55;;;21.80;;
3197;SDS011;1611;49.394;11.136;2024-03-08T01:39:26;42.22;;;20.35;;
3197;SDS011;1611;49.394;11.136;2024-03-08T01:41:52;33.35;;;19.15;;
3197;SDS011;1611;49.394;11.136;2024-03-08T01:44:20;33.22;;;19.10;;
3197;SDS011;1611;49.394;11.136;2024-03-08T01:46:47;40.03;;;21.17;;
3197;SDS011;1611;49.394;11.136;2024-03-08T01:49:17;36.85;;;20.55;;
3197;SDS011;1611;49.394;11.136;2024-03-08T01:51:46;42.75;;;21.60;;
3197;SDS011;1611;49.394;11.136;2024-03-08T01:54:14;39.15;;;20.10;;
3197;SDS011;1611;49.394;11.136;2024-03-08T01:56:42;39.70;;;22.20;;
3197;SDS011;1611;49.394;11.136;2024-03-08T01:59:09;41.03;;;21.42;;
3197;SDS011;1611;49.394;11.136;2024-03-08T02:01:36;39.35;;;21.80;;
3197;SDS011;1611;49.394;11.136;2024-03-08T02:04:03;38.00;;;20.70;;
3197;SDS011;1611;49.394;11.136;2024-03-08T02:06:33;44.88;;;24.55;;
3197;SDS011;1611;49.394;11.136;2024-03-08T02:09:12;38.55;;;21.92;;
3197;SDS011;1611;49.394;11.136;2024-03-08T02:11:39;41.17;;;22.65;;
3197;SDS011;1611;49.394;11.136;2024-03-08T02:14:07;47.45;;;23.23;;
3197;SDS011;1611;49.394;11.136;2024-03-08T02:16:34;41.63;;;23.35;;
3197;SDS011;1611;49.394;11.136;2024-03-08T02:19:01;41.80;;;22.70;;
3197;SDS011;1611;49.394;11.136;2024-03-08T02:21:29;41.38;;;22.77;;
3197;SDS011;1611;49.394;11.136;2024-03-08T02:23:56;45.97;;;24.20;;
3197;SDS011;1611;49.394;11.136;2024-03-08T02:26:23;43.53;;;24.13;;
3197;SDS011;1611;49.394;11.136;2024-03-08T02:28:50;41.22;;;22.70;;
3197;SDS011;1611;49.394;11.136;2024-03-08T02:31:16;49.38;;;23.92;;
3197;SDS011;1611;49.394;11.136;2024-03-08T02:33:43;39.28;;;21.75;;
3197;SDS011;1611;49.394;11.136;2024-03-08T02:36:12;40.58;;;22.52;;
3197;SDS011;1611;49.394;11.136;2024-03-08T02:38:40;37.17;;;21.33;;
3197;SDS011;1611;49.394;11.136;2024-03-08T02:41:07;35.05;;;19.38;;
3197;SDS011;1611;49.394;11.136;2024-03-08T02:43:35;39.05;;;20.98;;
3197;SDS011;1611;49.394;11.136;2024-03-08T02:46:02;39.25;;;20.95;;
3197;SDS011;1611;49.394;11.136;2024-03-08T02:48:30;39.92;;;21.35;;
3197;SDS011;1611;49.394;11.136;2024-03-08T02:50:57;36.05;;;20.52;;
3197;SDS011;1611;49.394;11.136;2024-03-08T02:53:24;38.20;;;21.55;;
3197;SDS011;1611;49.394;11.136;2024-03-08T02:55:52;40.67;;;22.42;;
3197;SDS011;1611;49.394;11.136;2024-03-08T02:58:18;42.72;;;21.27;;
3197;SDS011;1611;49.394;11.136;2024-03-08T03:00:45;44.95;;;22.55;;
3197;SDS011;1611;49.394;11.136;2024-03-08T03:03:12;43.72;;;22.35;;
3197;SDS011;1611;49.394;11.136;2024-03-08T03:05:38;37.67;;;21.27;;
3197;SDS011;1611;49.394;11.136;2024-03-08T03:08:06;43.13;;;19.92;;
3197;SDS011;1611;49.394;11.136;2024-03-08T03:10:33;37.95;;;19.08;;
3197;SDS011;1611;49.394;11.136;2024-03-08T03:13:02;34.75;;;19.05;;
3197;SDS011;1611;49.394;11.136;2024-03-08T03:15:29;38.33;;;20.27;;
3197;SDS011;1611;49.394;11.136;2024-03-08T03:17:56;38.58;;;21.17;;
3197;SDS011;1611;49.394;11.136;2024-03-08T03:20:23;39.03;;;21.40;;
3197;SDS011;1611;49.394;11.136;2024-03-08T03:22:57;46.42;;;23.05;;
3197;SDS011;1611;49.394;11.136;2024-03-08T03:25:26;39.85;;;20.88;;
3197;SDS011;1611;49.394;11.136;2024-03-08T03:27:58;38.17;;;20.65;;
3197;SDS011;1611;49.394;11.136;2024-03-08T03:30:26;35.92;;;20.40;;
3197;SDS011;1611;49.394;11.136;2024-03-08T03:32:57;38.80;;;21.67;;
3197;SDS011;1611;49.394;11.136;2024-03-08T03:35:25;42.88;;;21.73;;
3197;SDS011;1611;49.394;11.136;2024-03-08T03:37:52;42.72;;;21.30;;
3197;SDS011;1611;49.394;11.136;2024-03-08T03:40:27;45.03;;;24.50;;
3197;SDS011;1611;49.394;11.136;2024-03-08T03:42:54;45.25;;;24.05;;
3197;SDS011;1611;49.394;11.136;2024-03-08T03:45:21;43.22;;;21.15;;
3197;SDS011;1611;49.394;11.136;2024-03-08T03:47:49;41.35;;;23.45;;
3197;SDS011;1611;49.394;11.136;2024-03-08T03:50:16;42.85;;;22.00;;
3197;SDS011;1611;49.394;11.136;2024-03-08T03:52:44;44.65;;;24.42;;
3197;SDS011;1611;49.394;11.136;2024-03-08T03:55:11;49.28;;;24.70;;
3197;SDS011;1611;49.394;11.136;2024-03-08T03:57:38;47.53;;;24.95;;
3197;SDS011;1611;49.394;11.136;2024-03-08T04:00:05;44.60;;;22.88;;
3197;SDS011;1611;49.394;11.136;2024-03-08T04:02:35;40.92;;;22.92;;
3197;SDS011;1611;49.394;11.136;2024-03-08T04:05:05;45.58;;;24.20;;
3197;SDS011;1611;49.394;11.136;2024-03-08T04:07:32;45.45;;;26.38;;
3197;SDS011;1611;49.394;11.136;2024-03-08T04:09:59;48.50;;;24.05;;
3197;SDS011;1611;49.394;11.136;2024-03-08T04:12:26;40.13;;;22.90;;
3197;SDS011;1611;49.394;11.136;2024-03-08T04:14:54;41.17;;;23.90;;
3197;SDS011;1611;49.394;11.136;2024-03-08T04:17:20;50.72;;;26.83;;
3197;SDS011;1611;49.394;11.136;2024-03-08T04:19:49;49.53;;;25.77;;
3197;SDS011;1611;49.394;11.136;2024-03-08T04:22:17;50.78;;;27.35;;
3197;SDS011;1611;49.394;11.136;2024-03-08T04:24:44;46.35;;;24.80;;
3197;SDS011;1611;49.394;11.136;2024-03-08T04:27:11;44.42;;;25.17;;
3197;SDS011;1611;49.394;11.136;2024-03-08T04:29:37;40.22;;;23.30;;
3197;SDS011;1611;49.394;11.136;2024-03-08T04:32:04;44.95;;;24.20;;
3197;SDS011;1611;49.394;11.136;2024-03-08T04:34:33;42.78;;;24.17;;
3197;SDS011;1611;49.394;11.136;2024-03-08T04:37:00;47.55;;;24.13;;
3197;SDS011;1611;49.394;11.136;2024-03-08T04:39:28;42.63;;;24.02;;
3197;SDS011;1611;49.394;11.136;2024-03-08T04:41:56;42.13;;;23.02;;
3197;SDS011;1611;49.394;11.136;2024-03-08T04:44:25;45.67;;;23.77;;
3197;SDS011;1611;49.394;11.136;2024-03-08T04:46:52;45.75;;;23.75;;
3197;SDS011;1611;49.394;11.136;2024-03-08T04:49:18;49.33;;;24.20;;
3197;SDS011;1611;49.394;11.136;2024-03-08T04:51:46;48.47;;;26.50;;
3197;SDS011;1611;49.394;11.136;2024-03-08T04:54:13;46.22;;;23.63;;
3197;SDS011;1611;49.394;11.136;2024-03-08T04:56:41;46.20;;;24.20;;
3197;SDS011;1611;49.394;11.136;2024-03-08T04:59:08;50.25;;;25.98;;
3197;SDS011;1611;49.394;11.136;2024-03-08T05:01:35;46.90;;;26.05;;
3197;SDS011;1611;49.394;11.136;2024-03-08T05:04:03;44.47;;;24.08;;
3197;SDS011;1611;49.394;11.136;2024-03-08T05:06:30;43.50;;;23.23;;
3197;SDS011;1611;49.394;11.136;2024-03-08T05:08:58;46.15;;;24.60;;
3197;SDS011;1611;49.394;11.136;2024-03-08T05:11:25;44.92;;;23.45;;
3197;SDS011;1611;49.394;11.136;2024-03-08T05:13:53;44.67;;;22.30;;
3197;SDS011;1611;49.394;11.136;2024-03-08T05:16:20;39.80;;;22.33;;
3197;SDS011;1611;49.394;11.136;2024-03-08T05:18:49;42.75;;;22.73;;
3197;SDS011;1611;49.394;11.136;2024-03-08T05:21:16;50.08;;;23.60;;
3197;SDS011;1611;49.394;11.136;2024-03-08T05:23:45;45.75;;;27.20;;
3197;SDS011;1611;49.394;11.136;2024-03-08T05:26:12;41.88;;;24.13;;
3197;SDS011;1611;49.394;11.136;2024-03-08T05:28:39;47.25;;;25.75;;
3197;SDS011;1611;49.394;11.136;2024-03-08T05:31:07;46.30;;;24.00;;
3197;SDS011;1611;49.394;11.136;2024-03-08T05:33:34;46.38;;;24.65;;
3197;SDS011;1611;49.394;11.136;2024-03-08T05:36:00;46.45;;;24.50;;
3197;SDS011;1611;49.394;11.136;2024-03-08T05:38:28;50.90;;;26.48;;
3197;SDS011;1611;49.394;11.136;2024-03-08T05:40:54;44.50;;;23.80;;
3197;SDS011;1611;49.394;11.136;2024-03-08T05:43:21;52.83;;;26.88;;
3197;SDS011;1611;49.394;11.136;2024-03-08T05:45:48;55.78;;;27.17;;
3197;SDS011;1611;49.394;11.136;2024-03-08T05:48:16;52.10;;;26.52;;
3197;SDS011;1611;49.394;11.136;2024-03-08T05:50:43;55.08;;;28.63;;
3197;SDS011;1611;49.394;11.136;2024-03-08T05:53:10;54.30;;;27.13;;
3197;SDS011;1611;49.394;11.136;2024-03-08T05:55:38;54.83;;;27.88;;
3197;SDS011;1611;49.394;11.136;2024-03-08T05:58:05;47.13;;;25.83;;
3197;SDS011;1611;49.394;11.136;2024-03-08T06:00:33;54.47;;;27.35;;
3197;SDS011;1611;49.394;11.136;2024-03-08T06:03:01;49.35;;;24.05;;
3197;SDS011;1611;49.394;11.136;2024-03-08T06:05:29;46.63;;;24.50;;
3197;SDS011;1611;49.394;11.136;2024-03-08T06:07:56;50.10;;;25.27;;
3197;SDS011;1611;49.394;11.136;2024-03-08T06:10:22;42.83;;;25.30;;
3197;SDS011;1611;49.394;11.136;2024-03-08T06:12:49;53.67;;;26.13;;
3197;SDS011;1611;49.394;11.136;2024-03-08T06:15:16;47.15;;;25.52;;
3197;SDS011;1611;49.394;11.136;2024-03-08T06:17:45;48.92;;;26.20;;
3197;SDS011;1611;49.394;11.136;2024-03-08T06:20:12;49.50;;;24.60;;
3197;SDS011;1611;49.394;11.136;2024-03-08T06:22:40;43.75;;;25.30;;
3197;SDS011;1611;49.394;11.136;2024-03-08T06:25:07;53.17;;;26.77;;
3197;SDS011;1611;49.394;11.136;2024-03-08T06:27:35;48.85;;;25.85;;
3197;SDS011;1611;49.394;11.136;2024-03-08T06:30:02;49.55;;;25.23;;
3197;SDS011;1611;49.394;11.136;2024-03-08T06:32:30;52.03;;;26.15;;
3197;SDS011;1611;49.394;11.136;2024-03-08T06:35:00;50.78;;;23.95;;
3197;SDS011;1611;49.394;11.136;2024-03-08T06:37:27;49.88;;;24.80;;
3197;SDS011;1611;49.394;11.136;2024-03-08T06:39:55;49.95;;;25.30;;
3197;SDS011;1611;49.394;11.136;2024-03-08T06:42:22;52.50;;;25.50;;
3197;SDS011;1611;49.394;11.136;2024-03-08T06:44:49;54.65;;;26.05;;
3197;SDS011;1611;49.394;11.136;2024-03-08T06:47:15;55.38;;;26.55;;
3197;SDS011;1611;49.394;11.136;2024-03-08T06:49:42;56.63;;;27.23;;
3197;SDS011;1611;49.394;11.136;2024-03-08T06:52:09;47.33;;;24.13;;
3197;SDS011;1611;49.394;11.136;2024-03-08T06:54:36;56.10;;;27.98;;
3197;SDS011;1611;49.394;11.136;2024-03-08T06:57:04;49.47;;;25.52;;
3197;SDS011;1611;49.394;11.136;2024-03-08T06:59:31;49.83;;;26.80;;
3197;SDS011;1611;49.394;11.136;2024-03-08T07:02:00;53.90;;;27.13;;
3197;SDS011;1611;49.394;11.136;2024-03-08T07:04:27;53.45;;;27.25;;
3197;SDS011;1611;49.394;11.136;2024-03-08T07:06:54;57.22;;;27.55;;
3197;SDS011;1611;49.394;11.136;2024-03-08T07:09:22;51.35;;;27.35;;
3197;SDS011;1611;49.394;11.136;2024-03-08T07:11:49;53.83;;;28.38;;
3197;SDS011;1611;49.394;11.136;2024-03-08T07:14:20;60.65;;;30.70;;
3197;SDS011;1611;49.394;11.136;2024-03-08T07:16:48;56.30;;;27.77;;
3197;SDS011;1611;49.394;11.136;2024-03-08T07:19:14;58.15;;;29.85;;
3197;SDS011;1611;49.394;11.136;2024-03-08T07:21:41;61.05;;;34.33;;
3197;SDS011;1611;49.394;11.136;2024-03-08T07:24:09;54.75;;;27.77;;
3197;SDS011;1611;49.394;11.136;2024-03-08T07:26:52;64.03;;;29.05;;
3197;SDS011;1611;49.394;11.136;2024-03-08T07:29:21;61.05;;;30.15;;
3197;SDS011;1611;49.394;11.136;2024-03-08T07:31:48;54.75;;;29.45;;
3197;SDS011;1611;49.394;11.136;2024-03-08T07:34:21;54.03;;;28.63;;
3197;SDS011;1611;49.394;11.136;2024-03-08T07:36:48;49.65;;;26.25;;
3197;SDS011;1611;49.394;11.136;2024-03-08T07:39:15;52.92;;;27.60;;
3197;SDS011;1611;49.394;11.136;2024-03-08T07:41:42;50.58;;;25.30;;
3197;SDS011;1611;49.394;11.136;2024-03-08T07:44:09;49.65;;;27.88;;
3197;SDS011;1611;49.394;11.136;2024-03-08T07:46:37;49.05;;;26.00;;
3197;SDS011;1611;49.394;11.136;2024-03-08T07:49:04;52.00;;;27.85;;
3197;SDS011;1611;49.394;11.136;2024-03-08T07:51:31;50.53;;;26.90;;
3197;SDS011;1611;49.394;11.136;2024-03-08T07:53:59;49.47;;;26.45;;
3197;SDS011;1611;49.394;11.136;2024-03-08T07:56:26;43.33;;;25.05;;
3197;SDS011;1611;49.394;11.136;2024-03-08T07:58:53;49.88;;;25.45;;
3197;SDS011;1611;49.394;11.136;2024-03-08T08:01:19;46.95;;;23.90;;
3197;SDS011;1611;49.394;11.136;2024-03-08T08:03:47;47.17;;;25.48;;
3197;SDS011;1611;49.394;11.136;2024-03-08T08:06:14;41.78;;;24.02;;
3197;SDS011;1611;49.394;11.136;2024-03-08T08:08:41;47.83;;;25.27;;
3197;SDS011;1611;49.394;11.136;2024-03-08T08:11:08;44.95;;;24.35;;
3197;SDS011;1611;49.394;11.136;2024-03-08T08:13:36;40.42;;;23.67;;
3197;SDS011;1611;49.394;11.136;2024-03-08T08:16:04;44.50;;;23.40;;
3197;SDS011;1611;49.394;11.136;2024-03-08T08:18:31;40.22;;;23.23;;
3197;SDS011;1611;49.394;11.136;2024-03-08T08:21:01;49.33;;;24.58;;
3197;SDS011;1611;49.394;11.136;2024-03-08T08:23:28;42.10;;;23.58;;
3197;SDS011;1611;49.394;11.136;2024-03-08T08:25:55;38.25;;;22.00;;
3197;SDS011;1611;49.394;11.136;2024-03-08T08:28:22;39.75;;;22.70;;
3197;SDS011;1611;49.394;11.136;2024-03-08T08:30:49;39.63;;;22.15;;
3197;SDS011;1611;49.394;11.136;2024-03-08T08:33:17;38.88;;;21.80;;
3197;SDS011;1611;49.394;11.136;2024-03-08T08:35:44;41.00;;;23.00;;
3197;SDS011;1611;49.394;11.136;2024-03-08T08:38:14;44.03;;;21.10;;
3197;SDS011;1611;49.394;11.136;2024-03-08T08:40:40;39.40;;;20.85;;
3197;SDS011;1611;49.394;11.136;2024-03-08T08:43:07;34.85;;;20.63;;
3197;SDS011;1611;49.394;11.136;2024-03-08T08:45:34;37.20;;;19.73;;
3197;SDS011;1611;49.394;11.136;2024-03-08T08:48:01;36.70;;;21.38;;
3197;SDS011;1611;49.394;11.136;2024-03-08T08:50:28;38.85;;;20.83;;
3197;SDS011;1611;49.394;11.136;2024-03-08T08:52:56;34.90;;;18.50;;
3197;SDS011;1611;49.394;11.136;2024-03-08T08:55:24;37.38;;;20.08;;
3197;SDS011;1611;49.394;11.136;2024-03-08T08:57:51;34.25;;;19.27;;
3197;SDS011;1611;49.394;11.136;2024-03-08T09:00:18;35.30;;;19.77;;
3197;SDS011;1611;49.394;11.136;2024-03-08T09:02:46;32.10;;;18.50;;
3197;SDS011;1611;49.394;11.136;2024-03-08T09:05:13;35.58;;;18.00;;
3197;SDS011;1611;49.394;11.136;2024-03-08T09:07:41;34.35;;;18.75;;
3197;SDS011;1611;49.394;11.136;2024-03-08T09:10:09;26.23;;;17.13;;
3197;SDS011;1611;49.394;11.136;2024-03-08T09:12:38;35.00;;;19.75;;
3197;SDS011;1611;49.394;11.136;2024-03-08T09:15:05;40.25;;;18.73;;
3197;SDS011;1611;49.394;11.136;2024-03-08T09:17:33;31.90;;;17.27;;
3197;SDS011;1611;49.394;11.136;2024-03-08T09:20:00;35.85;;;20.60;;
3197;SDS011;1611;49.394;11.136;2024-03-08T09:22:28;36.83;;;20.27;;
3197;SDS011;1611;49.394;11.136;2024-03-08T09:24:55;39.28;;;19.83;;
3197;SDS011;1611;49.394;11.136;2024-03-08T09:27:22;33.85;;;19.27;;
3197;SDS011;1611;49.394;11.136;2024-03-08T09:29:50;33.88;;;19.08;;
3197;SDS011;1611;49.394;11.136;2024-03-08T09:32:17;29.65;;;17.55;;
3197;SDS011;1611;49.394;11.136;2024-03-08T09:34:44;31.02;;;18.02;;
3197;SDS011;1611;49.394;11.136;2024-03-08T09:37:10;30.50;;;18.83;;
3197;SDS011;1611;49.394;11.136;2024-03-08T09:39:37;29.73;;;17.70;;
3197;SDS011;1611;49.394;11.136;2024-03-08T09:42:04;29.87;;;17.53;;
3197;SDS011;1611;49.394;11.136;2024-03-08T09:44:31;29.48;;;18.15;;
3197;SDS011;1611;49.394;11.136;2024-03-08T09:47:01;28.90;;;18.67;;
3197;SDS011;1611;49.394;11.136;2024-03-08T09:49:28;32.45;;;20.35;;
3197;SDS011;1611;49.394;11.136;2024-03-08T09:51:55;29.00;;;18.17;;
3197;SDS011;1611;49.394;11.136;2024-03-08T09:54:22;29.60;;;17.57;;
3197;SDS011;1611;49.394;11.136;2024-03-08T09:56:49;33.93;;;18.60;;
3197;SDS011;1611;49.394;11.136;2024-03-08T09:59:17;26.85;;;16.83;;
3197;SDS011;1611;49.394;11.136;2024-03-08T10:02:23;28.37;;;17.77;;
3197;SDS011;1611;49.394;11.136;2024-03-08T10:04:50;28.90;;;17.63;;
3197;SDS011;1611;49.394;11.136;2024-03-08T10:07:18;27.70;;;16.97;;
3197;SDS011;1611;49.394;11.136;2024-03-08T10:09:45;25.97;;;16.77;;
3197;SDS011;1611;49.394;11.136;2024-03-08T10:12:15;32.90;;;17.80;;
3197;SDS011;1611;49.394;11.136;2024-03-08T10:14:44;30.20;;;18.50;;
3197;SDS011;1611;49.394;11.136;2024-03-08T10:17:11;28.60;;;15.77;;
3197;SDS011;1611;49.394;11.136;2024-03-08T10:19:40;26.90;;;15.83;;
3197;SDS011;1611;49.394;11.136;2024-03-08T10:22:15;23.50;;;13.80;;
3197;SDS011;1611;49.394;11.136;2024-03-08T10:24:44;32.67;;;15.50;;
3197;SDS011;1611;49.394;11.136;2024-03-08T10:27:11;24.77;;;15.82;;
3197;SDS011;1611;49.394;11.136;2024-03-08T10:29:38;24.07;;;15.57;;
3197;SDS011;1611;49.394;11.136;2024-03-08T10:32:09;21.77;;;14.77;;
3197;SDS011;1611;49.394;11.136;2024-03-08T10:34:36;20.77;;;13.47;;
3197;SDS011;1611;49.394;11.136;2024-03-08T10:37:04;19.67;;;13.93;;
3197;SDS011;1611;49.394;11.136;2024-03-08T10:39:35;18.03;;;13.50;;
3197;SDS011;1611;49.394;11.136;2024-03-08T10:42:04;17.30;;;12.67;;
3197;SDS011;1611;49.394;11.136;2024-03-08T10:44:39;22.83;;;14.40;;
3197;SDS011;1611;49.394;11.136;2024-03-08T10:47:17;19.83;;;12.53;;
3197;SDS011;1611;49.394;11.136;2024-03-08T10:49:50;18.60;;;13.90;;
3197;SDS011;1611;49.394;11.136;2024-03-08T10:52:21;19.70;;;13.43;;
3197;SDS011;1611;49.394;11.136;2024-03-08T10:54:48;18.80;;;13.10;;
3197;SDS011;1611;49.394;11.136;2024-03-08T10:57:17;20.30;;;11.90;;
3197;SDS011;1611;49.394;11.136;2024-03-08T10:59:45;23.43;;;12.80;;
3197;SDS011;1611;49.394;11.136;2024-03-08T11:02:14;45.50;;;13.73;;
3197;SDS011;1611;49.394;11.136;2024-03-08T11:04:45;14.77;;;11.10;;
3197;SDS011;1611;49.394;11.136;2024-03-08T11:07:14;14.27;;;10.60;;
3197;SDS011;1611;49.394;11.136;2024-03-08T11:09:46;18.33;;;10.70;;
3197;SDS011;1611;49.394;11.136;2024-03-08T11:12:20;15.43;;;10.97;;
3197;SDS011;1611;49.394;11.136;2024-03-08T11:14:50;15.63;;;11.40;;
3197;SDS011;1611;49.394;11.136;2024-03-08T11:17:20;14.18;;;9.90;;
3197;SDS011;1611;49.394;11.136;2024-03-08T11:19:48;9.60;;;8.60;;
3197;SDS011;1611;49.394;11.136;2024-03-08T11:22:20;11.27;;;9.17;;
3197;SDS011;1611;49.394;11.136;2024-03-08T11:24:51;11.77;;;10.20;;
3197;SDS011;1611;49.394;11.136;2024-03-08T11:27:18;10.23;;;9.20;;
3197;SDS011;1611;49.394;11.136;2024-03-08T11:29:50;9.30;;;7.97;;
3197;SDS011;1611;49.394;11.136;2024-03-08T11:32:33;9.60;;;8.50;;
3197;SDS011;1611;49.394;11.136;2024-03-08T11:35:01;11.37;;;7.93;;
3197;SDS011;1611;49.394;11.136;2024-03-08T11:37:33;9.83;;;7.77;;
3197;SDS011;1611;49.394;11.136;2024-03-08T11:40:02;19.63;;;7.60;;
3197;SDS011;1611;49.394;11.136;2024-03-08T11:42:43;7.60;;;6.90;;
3197;SDS011;1611;49.394;11.136;2024-03-08T11:45:12;10.83;;;6.60;;
3197;SDS011;1611;49.394;11.136;2024-03-08T11:47:39;25.63;;;8.77;;
3197;SDS011;1611;49.394;11.136;2024-03-08T11:50:09;9.13;;;8.20;;
3197;SDS011;1611;49.394;11.136;2024-03-08T11:52:37;28.97;;;10.40;;
3197;SDS011;1611;49.394;11.136;2024-03-08T11:55:06;12.70;;;10.03;;
3197;SDS011;1611;49.394;11.136;2024-03-08T11:57:33;11.83;;;10.37;;
3197;SDS011;1611;49.394;11.136;2024-03-08T12:00:00;13.83;;;11.07;;
3197;SDS011;1611;49.394;11.136;2024-03-08T12:02:31;15.53;;;12.33;;
3197;SDS011;1611;49.394;11.136;2024-03-08T12:05:00;13.93;;;10.80;;
3197;SDS011;1611;49.394;11.136;2024-03-08T12:07:28;12.53;;;10.73;;
3197;SDS011;1611;49.394;11.136;2024-03-08T12:10:17;15.40;;;11.60;;
3197;SDS011;1611;49.394;11.136;2024-03-08T12:12:46;14.30;;;10.10;;
3197;SDS011;1611;49.394;11.136;2024-03-08T12:15:15;14.10;;;11.20;;
3197;SDS011;1611;49.394;11.136;2024-03-08T12:17:43;12.83;;;11.40;;
3197;SDS011;1611;49.394;11.136;2024-03-08T12:20:14;15.93;;;12.23;;
3197;SDS011;1611;49.394;11.136;2024-03-08T12:22:42;12.47;;;9.87;;
3197;SDS011;1611;49.394;11.136;2024-03-08T12:25:09;13.07;;;10.00;;
3197;SDS011;1611;49.394;11.136;2024-03-08T12:27:39;14.60;;;10.50;;
3197;SDS011;1611;49.394;11.136;2024-03-08T12:30:19;14.33;;;10.60;;
3197;SDS011;1611;49.394;11.136;2024-03-08T12:32:48;12.43;;;10.83;;
3197;SDS011;1611;49.394;11.136;2024-03-08T12:35:18;11.73;;;10.53;;
3197;SDS011;1611;49.394;11.136;2024-03-08T12:37:47;11.53;;;9.70;;
3197;SDS011;1611;49.394;11.136;2024-03-08T12:40:16;12.40;;;10.27;;
3197;SDS011;1611;49.394;11.136;2024-03-08T12:42:45;12.40;;;9.87;;
3197;SDS011;1611;49.394;11.136;2024-03-08T12:45:13;14.70;;;9.90;;
3197;SDS011;1611;49.394;11.136;2024-03-08T12:47:40;11.97;;;9.90;;
3197;SDS011;1611;49.394;11.136;2024-03-08T12:50:08;11.80;;;9.60;;
3197;SDS011;1611;49.394;11.136;2024-03-08T12:52:35;13.40;;;10.07;;
3197;SDS011;1611;49.394;11.136;2024-03-08T12:55:02;12.73;;;9.67;;
3197;SDS011;1611;49.394;11.136;2024-03-08T12:57:31;11.70;;;10.17;;
3197;SDS011;1611;49.394;11.136;2024-03-08T13:00:01;10.70;;;9.30;;
3197;SDS011;1611;49.394;11.136;2024-03-08T13:02:29;12.83;;;10.13;;
3197;SDS011;1611;49.394;11.136;2024-03-08T13:04:57;15.23;;;9.57;;
3197;SDS011;1611;49.394;11.136;2024-03-08T13:07:24;12.97;;;10.40;;
3197;SDS011;1611;49.394;11.136;2024-03-08T13:09:51;13.30;;;10.10;;
3197;SDS011;1611;49.394;11.136;2024-03-08T13:12:18;14.57;;;10.43;;
3197;SDS011;1611;49.394;11.136;2024-03-08T13:14:46;13.80;;;10.30;;
3197;SDS011;1611;49.394;11.136;2024-03-08T13:17:14;11.43;;;8.80;;
3197;SDS011;1611;49.394;11.136;2024-03-08T13:19:41;10.73;;;9.30;;
3197;SDS011;1611;49.394;11.136;2024-03-08T13:22:08;10.97;;;8.50;;
3197;SDS011;1611;49.394;11.136;2024-03-08T13:24:38;15.50;;;10.83;;
3197;SDS011;1611;49.394;11.136;2024-03-08T13:27:06;9.63;;;8.60;;
3197;SDS011;1611;49.394;11.136;2024-03-08T13:29:44;11.07;;;9.90;;
3197;SDS011;1611;49.394;11.136;2024-03-08T13:32:14;12.63;;;10.00;;
3197;SDS011;1611;49.394;11.136;2024-03-08T13:34:41;10.10;;;8.90;;
3197;SDS011;1611;49.394;11.136;2024-03-08T13:37:07;14.67;;;10.00;;
3197;SDS011;1611;49.394;11.136;2024-03-08T13:39:35;13.97;;;10.60;;
3197;SDS011;1611;49.394;11.136;2024-03-08T13:42:07;18.43;;;11.10;;
3197;SDS011;1611;49.394;11.136;2024-03-08T13:44:35;10.57;;;9.00;;
3197;SDS011;1611;49.394;11.136;2024-03-08T13:47:02;11.77;;;9.60;;
3197;SDS011;1611;49.394;11.136;2024-03-08T13:49:31;13.13;;;10.37;;
3197;SDS011;1611;49.394;11.136;2024-03-08T13:51:58;15.43;;;10.53;;
3197;SDS011;1611;49.394;11.136;2024-03-08T13:54:25;12.80;;;10.30;;
3197;SDS011;1611;49.394;11.136;2024-03-08T13:56:52;20.63;;;12.67;;
3197;SDS011;1611;49.394;11.136;2024-03-08T13:59:19;18.93;;;10.73;;
3197;SDS011;1611;49.394;11.136;2024-03-08T14:01:47;11.97;;;9.87;;
3197;SDS011;1611;49.394;11.136;2024-03-08T14:04:15;12.77;;;9.97;;
3197;SDS011;1611;49.394;11.136;2024-03-08T14:06:43;14.30;;;9.77;;
3197;SDS011;1611;49.394;11.136;2024-03-08T14:09:10;21.60;;;11.37;;
3197;SDS011;1611;49.394;11.136;2024-03-08T14:11:41;16.63;;;10.90;;
3197;SDS011;1611;49.394;11.136;2024-03-08T14:14:09;21.80;;;10.90;;
3197;SDS011;1611;49.394;11.136;2024-03-08T14:16:37;17.07;;;11.57;;
3197;SDS011;1611;49.394;11.136;2024-03-08T14:19:04;14.57;;;11.07;;
3197;SDS011;1611;49.394;11.136;2024-03-08T14:21:31;19.50;;;14.00;;
3197;SDS011;1611;49.394;11.136;2024-03-08T14:23:59;19.67;;;12.67;;
3197;SDS011;1611;49.394;11.136;2024-03-08T14:26:26;18.60;;;14.90;;
3197;SDS011;1611;49.394;11.136;2024-03-08T14:28:53;18.30;;;13.00;;
3197;SDS011;1611;49.394;11.136;2024-03-08T14:31:20;14.13;;;10.13;;
3197;SDS011;1611;49.394;11.136;2024-03-08T14:33:50;19.53;;;12.13;;
3197;SDS011;1611;49.394;11.136;2024-03-08T14:36:17;16.40;;;11.13;;
3197;SDS011;1611;49.394;11.136;2024-03-08T14:38:44;15.50;;;11.23;;
3197;SDS011;1611;49.394;11.136;2024-03-08T14:41:13;18.23;;;9.87;;